createdAt,value
2022-10-28T00:01:27.536Z,87.40
2022-10-28T00:03:59.858Z,87.63
2022-10-28T00:06:30.615Z,87.47
2022-10-28T00:08:57.837Z,87.78
2022-10-28T00:11:34.765Z,87.98
2022-10-28T00:14:04.334Z,88.04
2022-10-28T00:16:33.159Z,87.92
2022-10-28T00:19:00.902Z,88.02
2022-10-28T00:21:29.999Z,87.65
2022-10-28T00:23:57.060Z,87.83
2022-10-28T00:26:29.178Z,87.77
2022-10-28T00:29:04.668Z,87.81
2022-10-28T00:31:32.128Z,87.43
2022-10-28T00:34:00.311Z,87.73
2022-10-28T00:36:29.201Z,87.51
2022-10-28T00:38:56.623Z,87.80
2022-10-28T00:41:36.848Z,87.54
2022-10-28T00:44:41.900Z,87.84
2022-10-28T00:47:17.925Z,88.15
2022-10-28T00:49:47.238Z,87.82
2022-10-28T00:52:19.868Z,87.89
2022-10-28T00:54:46.785Z,88.07
2022-10-28T00:57:18.930Z,87.89
2022-10-28T00:59:49.396Z,87.74
2022-10-28T01:02:16.116Z,87.67
2022-10-28T01:04:43.240Z,87.33
2022-10-28T01:07:10.923Z,87.54
2022-10-28T01:09:39.620Z,87.69
2022-10-28T01:12:09.303Z,87.18
2022-10-28T01:14:41.375Z,87.40
2022-10-28T01:17:35.584Z,87.35
2022-10-28T01:20:11.056Z,87.49
2022-10-28T01:22:55.557Z,87.32
2022-10-28T01:25:52.356Z,87.37
2022-10-28T01:28:46.608Z,87.20
2022-10-28T01:31:16.006Z,87.28
2022-10-28T01:34:00.792Z,87.75
2022-10-28T01:36:55.900Z,87.70
2022-10-28T01:39:22.262Z,88.32
2022-10-28T01:42:10.849Z,88.86
2022-10-28T01:44:58.803Z,88.94
2022-10-28T01:47:30.435Z,89.14
2022-10-28T01:49:56.770Z,89.23
2022-10-28T01:52:27.448Z,89.05
2022-10-28T01:55:01.392Z,89.42
2022-10-28T01:57:30.791Z,88.86
2022-10-28T01:59:57.830Z,88.59
2022-10-28T02:02:24.796Z,88.54
2022-10-28T02:04:51.176Z,87.67
2022-10-28T02:07:17.671Z,88.03
2022-10-28T02:10:02.787Z,88.46
2022-10-28T02:12:36.196Z,87.93
2022-10-28T02:15:19.643Z,88.11
2022-10-28T02:17:48.923Z,88.14
2022-10-28T02:20:37.594Z,87.89
2022-10-28T02:23:28.263Z,87.92
2022-10-28T02:26:15.541Z,88.35
2022-10-28T02:29:06.354Z,88.60
2022-10-28T02:31:43.860Z,88.38
2022-10-28T02:34:17.227Z,88.79
2022-10-28T02:36:48.728Z,88.85
2022-10-28T02:39:17.868Z,89.10
2022-10-28T02:42:00.763Z,89.54
2022-10-28T02:44:31.509Z,90.23
2022-10-28T02:47:02.573Z,89.52
2022-10-28T02:49:32.489Z,89.59
2022-10-28T02:52:02.216Z,89.73
2022-10-28T02:54:34.866Z,89.85
2022-10-28T02:57:07.507Z,89.68
2022-10-28T02:59:33.933Z,89.58
2022-10-28T03:02:00.599Z,89.90
2022-10-28T03:04:27.116Z,89.68
2022-10-28T03:06:53.502Z,89.97
2022-10-28T03:09:19.907Z,90.42
2022-10-28T03:11:46.396Z,90.32
2022-10-28T03:14:14.707Z,90.65
2022-10-28T03:16:41.971Z,90.13
2022-10-28T03:21:35.720Z,91.22
2022-10-28T03:24:02.143Z,91.38
2022-10-28T03:26:28.545Z,91.85
2022-10-28T03:28:54.940Z,91.90
2022-10-28T03:31:21.327Z,92.37
2022-10-28T03:33:47.716Z,92.33
2022-10-28T03:36:14.130Z,92.78
2022-10-28T03:38:40.549Z,92.72
2022-10-28T03:41:06.993Z,92.86
2022-10-28T03:43:33.419Z,92.85
2022-10-28T03:45:59.825Z,92.37
2022-10-28T03:48:26.227Z,92.38
2022-10-28T03:50:54.165Z,91.94
2022-10-28T03:53:21.921Z,91.62
2022-10-28T03:55:55.975Z,91.48
2022-10-28T03:58:22.661Z,91.19
2022-10-28T04:00:50.332Z,91.41
2022-10-28T04:03:17.792Z,90.72
2022-10-28T04:05:44.833Z,90.69
2022-10-28T04:08:11.514Z,90.76
2022-10-28T04:10:37.948Z,90.42
2022-10-28T04:13:06.115Z,89.98
2022-10-28T04:15:32.895Z,89.97
2022-10-28T04:17:59.302Z,90.30
2022-10-28T04:20:26.593Z,89.97
2022-10-28T04:22:57.088Z,91.01
2022-10-28T04:25:25.757Z,91.85
2022-10-28T04:27:52.447Z,91.37
2022-10-28T04:30:19.149Z,92.26
2022-10-28T04:32:45.903Z,92.13
2022-10-28T04:35:13.093Z,92.29
2022-10-28T04:37:40.523Z,92.74
2022-10-28T04:40:08.712Z,92.69
2022-10-28T04:42:35.459Z,92.14
2022-10-28T04:45:01.917Z,92.35
2022-10-28T04:47:28.393Z,92.50
2022-10-28T04:49:54.811Z,92.90
2022-10-28T04:52:21.381Z,92.25
2022-10-28T04:54:47.803Z,91.98
2022-10-28T04:57:14.334Z,92.37
2022-10-28T04:59:40.825Z,92.52
2022-10-28T05:02:07.449Z,92.88
2022-10-28T05:04:33.928Z,92.79
2022-10-28T05:07:00.337Z,92.95
2022-10-28T05:09:27.895Z,92.70
2022-10-28T05:11:54.380Z,92.88
2022-10-28T05:14:20.826Z,92.63
2022-10-28T05:16:47.234Z,92.33
2022-10-28T05:19:13.624Z,92.19
2022-10-28T05:21:40.079Z,92.18
2022-10-28T05:24:06.866Z,92.21
2022-10-28T05:26:33.347Z,92.13
2022-10-28T05:28:59.755Z,91.94
2022-10-28T05:31:26.266Z,91.77
2022-10-28T05:33:52.725Z,91.80
2022-10-28T05:36:19.122Z,92.02
2022-10-28T05:38:45.653Z,92.25
2022-10-28T05:41:12.497Z,91.95
2022-10-28T05:43:38.887Z,91.50
2022-10-28T05:46:05.360Z,91.65
2022-10-28T05:48:31.784Z,92.06
2022-10-28T05:50:58.228Z,92.38
2022-10-28T05:53:24.625Z,92.20
2022-10-28T05:55:51.021Z,92.70
2022-10-28T05:58:17.685Z,92.55
2022-10-28T06:00:44.064Z,92.69
2022-10-28T06:03:12.162Z,93.24
2022-10-28T06:05:46.859Z,93.09
2022-10-28T06:08:14.073Z,92.89
2022-10-28T06:10:41.597Z,92.99
2022-10-28T06:13:07.656Z,93.10
2022-10-28T06:15:34.089Z,92.48
2022-10-28T06:18:00.547Z,92.50
2022-10-28T06:20:26.945Z,92.44
2022-10-28T06:22:55.522Z,91.88
2022-10-28T06:25:24.344Z,92.30
2022-10-28T06:27:58.321Z,92.39
2022-10-28T06:30:26.331Z,92.20
2022-10-28T06:32:56.364Z,92.25
2022-10-28T06:35:22.930Z,92.20
2022-10-28T06:37:54.910Z,92.52
2022-10-28T06:40:25.529Z,92.27
2022-10-28T06:43:02.513Z,92.90
2022-10-28T06:45:30.968Z,92.74
2022-10-28T06:48:00.759Z,93.00
2022-10-28T06:50:27.788Z,92.99
2022-10-28T06:52:57.482Z,93.11
2022-10-28T06:55:25.081Z,92.40
2022-10-28T06:57:51.821Z,91.86
2022-10-28T07:00:18.830Z,91.51
2022-10-28T07:02:45.440Z,91.16
2022-10-28T07:05:11.935Z,90.98
2022-10-28T07:07:38.405Z,91.03
2022-10-28T07:10:06.013Z,91.29
2022-10-28T07:12:32.750Z,90.82
2022-10-28T07:14:59.174Z,90.63
2022-10-28T07:17:26.374Z,90.26
2022-10-28T07:19:52.754Z,89.68
2022-10-28T07:22:22.409Z,89.51
2022-10-28T07:24:51.850Z,89.42
2022-10-28T07:27:18.303Z,89.35
2022-10-28T07:29:44.749Z,88.99
2022-10-28T07:32:11.209Z,88.30
2022-10-28T07:34:37.699Z,87.95
2022-10-28T07:37:05.948Z,87.32
2022-10-28T07:39:32.426Z,87.27
2022-10-28T07:42:00.454Z,87.07
2022-10-28T07:44:27.139Z,86.74
2022-10-28T07:46:55.772Z,86.65
2022-10-28T07:49:24.643Z,85.99
2022-10-28T07:51:51.510Z,85.48
2022-10-28T07:54:17.908Z,85.50
2022-10-28T07:56:44.356Z,85.11
2022-10-28T07:59:10.783Z,84.53
2022-10-28T08:01:37.599Z,84.26
2022-10-28T08:04:04.107Z,83.56
2022-10-28T08:06:30.597Z,83.86
2022-10-28T08:08:57.155Z,83.14
2022-10-28T08:11:24.406Z,83.09
2022-10-28T08:13:55.227Z,83.00
2022-10-28T08:16:21.710Z,82.99
2022-10-28T08:18:48.269Z,82.98
2022-10-28T08:21:15.427Z,82.83
2022-10-28T08:23:46.554Z,83.21
2022-10-28T08:26:15.152Z,83.09
2022-10-28T08:28:42.445Z,83.14
2022-10-28T08:31:10.134Z,80.89
2022-10-28T08:33:38.590Z,75.84
2022-10-28T08:36:06.190Z,71.34
2022-10-28T08:38:32.685Z,68.86
2022-10-28T08:41:05.201Z,66.37
2022-10-28T08:43:56.804Z,64.17
2022-10-28T08:46:32.998Z,62.55
2022-10-28T08:49:02.793Z,62.42
2022-10-28T08:51:38.562Z,61.60
2022-10-28T08:54:13.471Z,60.22
2022-10-28T08:56:49.050Z,59.14
2022-10-28T08:59:29.346Z,59.15
2022-10-28T09:02:14.484Z,59.04
2022-10-28T09:04:44.629Z,59.50
2022-10-28T09:07:18.628Z,57.28
2022-10-28T09:09:46.452Z,56.08
2022-10-28T09:12:33.098Z,55.99
2022-10-28T09:15:13.398Z,55.44
2022-10-28T09:17:53.723Z,54.51
2022-10-28T09:20:45.837Z,55.26
2022-10-28T09:23:26.851Z,55.10
2022-10-28T09:26:35.912Z,53.82
2022-10-28T09:29:14.287Z,52.70
2022-10-28T09:31:47.342Z,52.03
2022-10-28T09:34:29.112Z,51.07
2022-10-28T09:37:06.307Z,52.46
2022-10-28T09:39:44.166Z,52.45
2022-10-28T09:42:32.686Z,53.38
2022-10-28T09:45:12.443Z,51.06
2022-10-28T09:47:46.081Z,49.76
2022-10-28T09:50:22.500Z,47.96
2022-10-28T09:53:43.172Z,50.42
2022-10-28T09:56:10.502Z,50.58
2022-10-28T09:58:40.158Z,52.26
2022-10-28T10:01:06.626Z,53.84
2022-10-28T10:03:33.130Z,55.52
2022-10-28T10:06:08.003Z,56.85
2022-10-28T10:08:36.293Z,58.34
2022-10-28T10:11:07.836Z,58.72
2022-10-28T10:13:38.081Z,59.01
2022-10-28T10:16:33.918Z,61.01
2022-10-28T10:19:05.032Z,61.43
2022-10-28T10:21:47.660Z,61.78
2022-10-28T10:24:25.906Z,61.61
2022-10-28T10:26:53.274Z,61.49
2022-10-28T10:29:21.422Z,61.14
2022-10-28T10:31:48.835Z,60.25
2022-10-28T10:34:24.351Z,61.68
2022-10-28T10:36:56.289Z,61.23
2022-10-28T10:39:35.646Z,60.06
2022-10-28T10:42:02.109Z,58.56
2022-10-28T10:44:35.468Z,56.64
2022-10-28T10:47:05.947Z,54.16
2022-10-28T10:49:34.444Z,52.80
2022-10-28T10:52:07.695Z,51.86
2022-10-28T10:54:37.387Z,50.70
2022-10-28T10:57:08.936Z,49.04
2022-10-28T10:59:37.831Z,49.13
2022-10-28T11:02:18.838Z,49.68
2022-10-28T11:04:51.879Z,49.26
2022-10-28T11:07:18.312Z,48.80
2022-10-28T11:09:48.967Z,47.21
2022-10-28T11:12:16.240Z,47.33
2022-10-28T11:14:55.635Z,46.69
2022-10-28T11:17:25.565Z,46.40
2022-10-28T11:19:54.858Z,46.59
2022-10-28T11:22:49.819Z,47.13
2022-10-28T11:25:30.026Z,46.45
2022-10-28T11:28:04.547Z,46.99
2022-10-28T11:30:45.165Z,47.97
2022-10-28T11:33:33.987Z,47.77
2022-10-28T11:36:28.909Z,49.30
2022-10-28T11:39:33.588Z,51.28
2022-10-28T11:42:24.231Z,50.19
2022-10-28T11:45:04.410Z,48.92
2022-10-28T11:47:41.007Z,50.13
2022-10-28T11:50:28.865Z,51.63
2022-10-28T11:53:06.722Z,50.70
2022-10-28T11:55:45.740Z,50.07
2022-10-28T11:58:36.710Z,48.04
2022-10-28T12:01:21.979Z,47.91
2022-10-28T12:03:54.630Z,46.76
2022-10-28T12:06:52.780Z,47.02
2022-10-28T12:09:34.761Z,47.00
2022-10-28T12:12:16.603Z,45.93
2022-10-28T12:15:11.478Z,45.42
2022-10-28T12:18:07.383Z,45.36
2022-10-28T12:20:50.214Z,45.12
2022-10-28T12:23:20.876Z,43.51
2022-10-28T12:25:51.554Z,43.17
2022-10-28T12:28:26.304Z,42.98
2022-10-28T12:30:54.609Z,43.84
2022-10-28T12:33:27.104Z,45.18
2022-10-28T12:36:08.582Z,44.63
2022-10-28T12:38:44.383Z,43.77
2022-10-28T12:41:16.206Z,44.38
2022-10-28T12:43:52.380Z,44.07
2022-10-28T12:46:25.822Z,45.87
2022-10-28T12:49:00.129Z,46.20
2022-10-28T12:51:44.764Z,45.29
2022-10-28T12:54:41.124Z,45.27
2022-10-28T12:57:14.615Z,45.62
2022-10-28T12:59:50.991Z,46.01
2022-10-28T13:02:25.144Z,46.43
2022-10-28T13:04:51.744Z,45.54
2022-10-28T13:07:53.580Z,45.93
2022-10-28T13:10:33.179Z,44.56
2022-10-28T13:13:24.473Z,45.21
2022-10-28T13:16:51.322Z,45.78
2022-10-28T13:19:33.896Z,45.23
2022-10-28T13:22:09.473Z,46.05
2022-10-28T13:25:13.379Z,46.33
2022-10-28T13:27:40.258Z,45.99
2022-10-28T13:30:16.648Z,45.57
2022-10-28T13:32:43.974Z,45.41
2022-10-28T13:35:21.728Z,46.65
2022-10-28T13:37:50.700Z,47.21
2022-10-28T13:40:43.330Z,47.08
2022-10-28T13:43:20.760Z,47.23
2022-10-28T13:45:53.617Z,47.01
2022-10-28T13:48:29.262Z,47.90
2022-10-28T13:51:10.626Z,48.85
2022-10-28T13:53:41.830Z,49.20
2022-10-28T13:56:27.875Z,49.92
2022-10-28T13:58:57.891Z,50.16
2022-10-28T14:01:56.747Z,50.49
2022-10-28T14:04:37.860Z,51.28
2022-10-28T14:07:27.842Z,52.30
2022-10-28T14:09:59.914Z,52.49
2022-10-28T14:12:32.425Z,52.46
2022-10-28T14:15:04.344Z,53.09
2022-10-28T14:17:36.979Z,53.95
2022-10-28T14:20:06.826Z,55.45
2022-10-28T14:22:36.710Z,55.42
2022-10-28T14:25:41.815Z,55.93
2022-10-28T14:28:27.031Z,56.07
2022-10-28T14:31:11.819Z,56.98
2022-10-28T14:33:44.383Z,57.09
2022-10-28T14:36:14.074Z,57.42
2022-10-28T14:39:17.767Z,57.69
2022-10-28T14:41:55.585Z,58.02
2022-10-28T14:44:40.852Z,59.16
2022-10-28T14:47:13.401Z,59.15
2022-10-28T14:49:41.862Z,59.35
2022-10-28T14:52:15.998Z,59.48
2022-10-28T14:54:49.090Z,60.23
2022-10-28T14:57:22.080Z,60.24
2022-10-28T14:59:50.313Z,60.98
2022-10-28T15:02:29.265Z,61.07
2022-10-28T15:05:04.633Z,61.18
2022-10-28T15:07:37.878Z,60.76
2022-10-28T15:10:27.623Z,60.41
2022-10-28T15:12:57.216Z,60.94
2022-10-28T15:15:26.054Z,61.07
2022-10-28T15:17:52.987Z,61.18
2022-10-28T15:20:31.010Z,61.92
2022-10-28T15:23:16.306Z,61.45
2022-10-28T15:25:42.854Z,62.44
2022-10-28T15:28:13.895Z,62.62
2022-10-28T15:30:46.303Z,61.72
2022-10-28T15:33:21.204Z,61.97
2022-10-28T15:35:48.089Z,61.77
2022-10-28T15:38:33.034Z,61.68
2022-10-28T15:40:59.621Z,62.05
2022-10-28T15:43:30.791Z,62.85
2022-10-28T15:46:15.310Z,64.00
2022-10-28T15:48:42.243Z,63.99
2022-10-28T15:51:13.989Z,64.28
2022-10-28T15:53:47.531Z,64.89
2022-10-28T15:56:13.891Z,65.64
2022-10-28T15:58:43.154Z,65.87
2022-10-28T16:01:28.366Z,66.73
2022-10-28T16:03:54.905Z,67.42
2022-10-28T16:06:21.259Z,67.91
2022-10-28T16:08:48.605Z,68.80
2022-10-28T16:11:20.065Z,68.73
2022-10-28T16:13:49.234Z,69.58
2022-10-28T16:16:24.767Z,70.29
2022-10-28T16:19:02.251Z,70.50
2022-10-28T16:21:28.724Z,70.59
2022-10-28T16:23:59.058Z,70.80
2022-10-28T16:26:26.652Z,71.45
2022-10-28T16:28:53.159Z,71.58
2022-10-28T16:31:22.495Z,72.20
2022-10-28T16:33:49.003Z,73.45
2022-10-28T16:36:16.511Z,73.52
2022-10-28T16:38:42.967Z,73.59
2022-10-28T16:41:18.512Z,74.43
2022-10-28T16:43:45.890Z,75.35
2022-10-28T16:46:13.646Z,75.75
2022-10-28T16:48:40.753Z,75.84
2022-10-28T16:51:14.760Z,75.78
2022-10-28T16:53:46.858Z,75.07
2022-10-28T16:56:16.038Z,74.57
2022-10-28T16:58:43.896Z,75.87
2022-10-28T17:01:11.313Z,76.54
2022-10-28T17:03:37.814Z,76.15
2022-10-28T17:06:04.347Z,76.09
2022-10-28T17:08:56.681Z,76.38
2022-10-28T17:11:17.211Z,77.35
2022-10-28T17:13:43.676Z,76.67
2022-10-28T17:16:10.111Z,75.25
2022-10-28T17:18:36.520Z,75.22
2022-10-28T17:21:03.171Z,74.22
2022-10-28T17:23:29.873Z,74.64
2022-10-28T17:25:58.126Z,74.68
2022-10-28T17:28:24.587Z,74.31
2022-10-28T17:30:51.087Z,75.12
2022-10-28T17:33:17.480Z,75.79
2022-10-28T17:35:43.889Z,76.14
2022-10-28T17:38:10.283Z,77.01
2022-10-28T17:40:36.659Z,77.78
2022-10-28T17:43:03.066Z,77.76
2022-10-28T17:45:29.438Z,78.33
2022-10-28T17:47:55.816Z,80.28
2022-10-28T17:50:22.215Z,81.35
2022-10-28T17:52:48.631Z,81.51
2022-10-28T17:55:15.053Z,81.58
2022-10-28T17:57:41.507Z,81.17
2022-10-28T18:00:08.782Z,81.29
2022-10-28T18:02:35.377Z,81.08
2022-10-28T18:05:01.965Z,81.00
2022-10-28T18:07:28.629Z,82.05
2022-10-28T18:09:55.023Z,82.27
2022-10-28T18:12:21.451Z,82.04
2022-10-28T18:14:47.851Z,82.10
2022-10-28T18:17:14.775Z,82.28
2022-10-28T18:19:41.199Z,82.24
2022-10-28T18:22:07.656Z,83.33
2022-10-28T18:24:34.263Z,82.81
2022-10-28T18:27:00.663Z,83.35
2022-10-28T18:29:27.305Z,84.17
2022-10-28T18:31:53.956Z,83.80
2022-10-28T18:34:21.280Z,84.02
2022-10-28T18:36:47.796Z,84.71
2022-10-28T18:39:14.198Z,84.78
2022-10-28T18:41:42.817Z,84.66
2022-10-28T18:44:12.901Z,84.90
2022-10-28T18:46:39.720Z,85.29
2022-10-28T18:49:06.383Z,86.66
2022-10-28T18:51:33.838Z,86.41
2022-10-28T18:54:00.394Z,86.07
2022-10-28T18:56:31.208Z,86.27
2022-10-28T18:58:58.455Z,86.10
2022-10-28T19:01:27.703Z,85.89
2022-10-28T19:03:58.985Z,85.94
2022-10-28T19:06:29.724Z,84.98
2022-10-28T19:08:58.788Z,84.53
2022-10-28T19:11:29.964Z,84.72
2022-10-28T19:13:58.581Z,85.00
2022-10-28T19:16:26.261Z,85.00
2022-10-28T19:19:00.085Z,85.08
2022-10-28T19:21:27.687Z,85.01
2022-10-28T19:23:54.760Z,84.59
2022-10-28T19:26:21.302Z,84.78
2022-10-28T19:28:49.134Z,85.26
2022-10-28T19:31:21.391Z,86.12
2022-10-28T19:33:49.316Z,87.17
2022-10-28T19:36:22.743Z,87.07
2022-10-28T19:38:51.004Z,87.30
2022-10-28T19:41:19.363Z,87.13
2022-10-28T19:43:46.611Z,87.50
2022-10-28T19:46:18.557Z,87.18
2022-10-28T19:48:50.208Z,86.73
2022-10-28T19:51:25.555Z,86.69
2022-10-28T19:53:54.059Z,87.11
2022-10-28T19:56:20.983Z,87.74
2022-10-28T19:58:51.346Z,88.01
2022-10-28T20:01:18.059Z,88.53
2022-10-28T20:03:48.998Z,89.10
2022-10-28T20:06:17.536Z,88.99
2022-10-28T20:08:46.304Z,89.44
2022-10-28T20:11:16.183Z,89.01
2022-10-28T20:13:43.397Z,89.57
2022-10-28T20:16:12.395Z,89.19
2022-10-28T20:18:39.487Z,89.09
2022-10-28T20:21:14.466Z,88.56
2022-10-28T20:23:42.342Z,88.77
2022-10-28T20:26:09.106Z,88.53
2022-10-28T20:28:35.705Z,88.44
2022-10-28T20:31:04.784Z,88.62
2022-10-28T20:33:31.332Z,89.03
2022-10-28T20:35:58.383Z,89.38
2022-10-28T20:38:25.652Z,89.08
2022-10-28T20:40:55.634Z,88.71
2022-10-28T20:43:24.177Z,88.98
2022-10-28T20:45:53.436Z,89.41
2022-10-28T20:48:20.771Z,88.83
2022-10-28T20:50:58.189Z,88.01
2022-10-28T20:53:26.359Z,88.42
2022-10-28T20:55:55.225Z,89.11
2022-10-28T20:58:24.029Z,89.21
2022-10-28T21:00:53.045Z,89.05
2022-10-28T21:03:20.417Z,88.74
2022-10-28T21:05:47.179Z,89.49
2022-10-28T21:08:14.155Z,89.81
2022-10-28T21:10:41.116Z,90.88
2022-10-28T21:13:07.595Z,91.44
2022-10-28T21:15:36.962Z,91.89
2022-10-28T21:18:05.798Z,91.94
2022-10-28T21:20:34.940Z,91.62
2022-10-28T21:23:01.410Z,91.57
2022-10-28T21:25:28.454Z,91.39
2022-10-28T21:27:59.101Z,91.54
2022-10-28T21:30:26.705Z,91.56
2022-10-28T21:32:53.690Z,91.58
2022-10-28T21:35:20.766Z,91.92
2022-10-28T21:37:47.266Z,91.96
2022-10-28T21:40:14.012Z,91.03
2022-10-28T21:42:40.524Z,90.99
2022-10-28T21:45:07.670Z,91.53
2022-10-28T21:47:34.612Z,91.46
2022-10-28T21:50:00.999Z,91.83
2022-10-28T21:52:27.406Z,91.50
2022-10-28T21:54:53.802Z,91.89
2022-10-28T21:57:20.192Z,91.97
2022-10-28T21:59:49.475Z,91.38
2022-10-28T22:02:16.107Z,91.74
2022-10-28T22:04:42.606Z,91.91
2022-10-28T22:07:09.221Z,92.60
2022-10-28T22:09:37.504Z,93.13
2022-10-28T22:12:04.500Z,93.07
2022-10-28T22:14:30.924Z,93.01
2022-10-28T22:16:57.462Z,92.59
2022-10-28T22:19:24.067Z,92.56
2022-10-28T22:21:50.515Z,93.84
2022-10-28T22:24:16.943Z,93.49
2022-10-28T22:26:43.487Z,93.78
2022-10-28T22:29:10.022Z,93.61
2022-10-28T22:31:36.526Z,93.18
2022-10-28T22:34:05.282Z,93.32
2022-10-28T22:36:31.722Z,93.25
2022-10-28T22:38:58.471Z,93.25
2022-10-28T22:41:26.921Z,91.94
2022-10-28T22:43:55.858Z,91.62
2022-10-28T22:46:24.279Z,92.10
2022-10-28T22:48:50.719Z,91.31
2022-10-28T22:51:20.087Z,90.13
2022-10-28T22:53:47.095Z,90.48
2022-10-28T22:56:16.672Z,90.88
2022-10-28T22:58:43.272Z,92.15
2022-10-28T23:01:15.792Z,91.47
2022-10-28T23:03:44.508Z,91.66
2022-10-28T23:06:12.981Z,91.63
2022-10-28T23:08:40.839Z,92.96
2022-10-28T23:11:08.571Z,92.48
2022-10-28T23:16:09.741Z,93.59
2022-10-28T23:18:36.665Z,94.06
2022-10-28T23:21:15.180Z,95.29
2022-10-28T23:23:42.564Z,94.23
2022-10-28T23:26:10.669Z,94.64
2022-10-28T23:28:37.106Z,94.74
2022-10-28T23:31:05.250Z,95.12
2022-10-28T23:33:33.884Z,95.36
2022-10-28T23:36:02.336Z,95.68
2022-10-28T23:38:28.746Z,95.43
2022-10-28T23:40:58.998Z,95.45
2022-10-28T23:43:26.806Z,95.98
2022-10-28T23:45:53.272Z,95.84
2022-10-28T23:48:19.899Z,95.49
2022-10-28T23:50:46.419Z,95.50
2022-10-28T23:53:13.455Z,95.20
2022-10-28T23:55:43.216Z,95.11
2022-10-28T23:58:09.988Z,94.77
